Share

Baudette, MN

08:07 CDT le 23 avril 2014 (GMT -0500)
Baudette International (KBDE) Alt. 1083 ft | 48.73 °N, 94.61 °W | Change Station

Current weather conditions updated 14 minutes ago

Clear
Ciel dégagé
37 ° F
Paraît 32 ° F
N
7
Vent Variable Vent de SE
Lever du soleil 6:13 AM
Coucher du soleil 8:22 PM
Lune Dernier quartier

Aujourd’hui il est prévu de faire plus chaud qu’hier. Pluie. tonight.

Pression 30.09 pouce
Visibilité 10.0 Miles terrestres
Nuages Ciel dégagé
Refroidissement éolien 32 ° F
Point de rosée 24 ° F
Humidité 59%
Précipitations 0.00 pouce
Profondeur de la couche neigeuse Non disponible.
UV 1 sur 16
Pollen 9.40 sur 12
Qualité de l'air Non disponible.
Flu Activity Sporadic
METAR KBDE 231253Z AUTO 13006KT 10SM CLR 03/M04 A3005 RMK AO2 SLP189 T00281044 TSNO

More Conditions Fewer Conditions

Pression 30.09 pouce
Visibilité 10.0 Miles terrestres
Nuages Ciel dégagé
Refroidissement éolien 32 ° F
Point de rosée 24 ° F
Humidité 59%
Précipitations 0.00 pouce
Profondeur de la couche neigeuse Non disponible.
UV 1 sur 16
Pollen 9.40 sur 12
Qualité de l'air Non disponible.
Flu Activity Sporadic
METAR KBDE 231253Z AUTO 13006KT 10SM CLR 03/M04 A3005 RMK AO2 SLP189 T00281044 TSNO

More Conditions Fewer Conditions

10-Day Weather Forecast

Almanac

Astronomie

Apr. 23, 2014 Lever Coucher
Temps réel 06:13 CDT 20:22 CDT
Crépuscule civil 05:39 CDT 20:56 CDT
Crépuscule nautique 04:57 CDT 21:39 CDT
Crépuscule astronomique 04:09 CDT 22:27 CDT
Lune 03:16 CDT 14:03 CDT
Durée de lumière visible 15h 17m
Longueur du jour
14h 09m
Tomorrow will be 3m 18s longer.
Dernier quartier, 36% of the Moon is Illuminated
Aujourd'hui
Dernier quartier
avr 29
Nouveau
mai 6
Premier quartier
mai 14
Pleine lune
mai 21
Dernier quartier

Extrêmes aujourd'hui

State Highs State Lows

Community

  • Earth Day Spectrum Ove' Blue
    Earth Day Spectrum Ove' Blue
  • April Sunset
    April Sunset
  • Waiting..
    Waiting..
  • Sunset...
    Sunset...
  • Happy outdoor day
    Happy outdoor day

WunderPhotos

Upload Photos

1,704,256 Photos téléchargées !

Nearby

Épaisseur de neige

Station Depth Altitude
Pas de nouvelles chutes de neige

Températures des eaux côtières

Lieu Température
Aucun rapport de station

Activité sismique

Ville Distance Mag. Time & Date
No recent earthquake activity has been reported nearby.
Minimum magnitude displayed is 2.5.

Stations météo à proximité

Emplacement de la station Température Refroidissement éolien Point de rosée Humidité Vent Precip. Alt. Mise à jour Type
RAWS BAUDETTE MN, Baudette, MN 36 ° F 32 ° F 23 ° F 58% SSE  à  5 mph 0.00 pouce / hr 1112 ft 7:06 AM CDT MADIS

Show More Stations Show Fewer Stations

What do you think?

We're not finished. Please let us know what you like, what you don't like, and what you are still missing.